createdAt,value
2023-01-11T00:02:42.525Z,98731.09
2023-01-11T00:05:45.800Z,98719.84
2023-01-11T00:08:48.578Z,98715.03
2023-01-11T00:11:52.524Z,98717.38
2023-01-11T00:14:55.089Z,98714.81
2023-01-11T00:17:58.295Z,98717.88
2023-01-11T00:21:05.520Z,98712.25
2023-01-11T00:24:08.101Z,98703.56
2023-01-11T00:27:12.167Z,98704.97
2023-01-11T00:30:15.470Z,98709.72
2023-01-11T00:33:18.176Z,98694.69
2023-01-11T00:36:20.846Z,98695.50
2023-01-11T00:39:23.435Z,98674.50
2023-01-11T00:42:44.845Z,98676.34
2023-01-11T00:46:05.360Z,98669.25
2023-01-11T00:49:08.173Z,98663.81
2023-01-11T00:52:11.439Z,98660.06
2023-01-11T00:55:14.079Z,98648.91
2023-01-11T00:58:18.304Z,98646.41
2023-01-11T01:01:21.044Z,98653.25
2023-01-11T01:04:23.579Z,98651.28
2023-01-11T01:07:26.479Z,98641.00
2023-01-11T01:10:29.013Z,98648.06
2023-01-11T01:13:50.675Z,98642.56
2023-01-11T01:16:53.960Z,98641.22
2023-01-11T01:19:56.580Z,98628.63
2023-01-11T01:22:59.203Z,98637.22
2023-01-11T01:26:04.555Z,98648.38
2023-01-11T01:29:08.484Z,98649.28
2023-01-11T01:32:11.223Z,98648.66
2023-01-11T01:35:13.816Z,98657.28
2023-01-11T01:38:16.518Z,98655.78
2023-01-11T01:41:19.375Z,98652.97
2023-01-11T01:44:56.207Z,98648.84
2023-01-11T01:48:00.613Z,98634.44
2023-01-11T01:51:04.185Z,98634.06
2023-01-11T01:54:10.384Z,98633.41
2023-01-11T01:57:17.280Z,98620.69
2023-01-11T02:00:22.342Z,98609.22
2023-01-11T02:03:26.714Z,98601.25
2023-01-11T02:06:29.373Z,98600.63
2023-01-11T02:09:37.658Z,98599.28
2023-01-11T02:12:42.169Z,98599.41
2023-01-11T02:15:46.521Z,98586.69
2023-01-11T02:18:49.155Z,98589.34
2023-01-11T02:22:04.189Z,98589.16
2023-01-11T02:25:33.870Z,98576.34
2023-01-11T02:28:41.030Z,98568.44
2023-01-11T02:31:49.080Z,98560.94
2023-01-11T02:34:59.857Z,98552.66
2023-01-11T02:38:08.718Z,98557.13
2023-01-11T02:41:18.095Z,98553.06
2023-01-11T02:44:43.449Z,98557.53
2023-01-11T02:47:48.654Z,98559.84
2023-01-11T02:50:56.870Z,98566.09
2023-01-11T02:54:03.488Z,98568.72
2023-01-11T02:57:07.047Z,98575.28
2023-01-11T03:03:40.560Z,98563.38
2023-01-11T03:06:43.372Z,98549.19
2023-01-11T03:09:56.483Z,98561.16
2023-01-11T03:13:09.900Z,98552.47
2023-01-11T03:16:23.111Z,98562.16
2023-01-11T03:19:32.120Z,98569.19
2023-01-11T03:22:40.313Z,98563.88
2023-01-11T03:25:52.064Z,98558.84
2023-01-11T03:28:58.327Z,98566.88
2023-01-11T03:32:13.569Z,98572.31
2023-01-11T03:35:23.452Z,98570.13
2023-01-11T03:38:28.544Z,98569.19
2023-01-11T03:41:35.165Z,98566.75
2023-01-11T03:44:41.867Z,98559.34
2023-01-11T03:47:45.809Z,98562.81
2023-01-11T03:50:49.202Z,98546.47
2023-01-11T03:53:52.741Z,98552.59
2023-01-11T03:57:00.102Z,98546.69
2023-01-11T04:00:03.096Z,98540.47
2023-01-11T04:03:09.610Z,98536.81
2023-01-11T04:06:13.058Z,98524.53
2023-01-11T04:09:15.790Z,98520.41
2023-01-11T04:12:18.526Z,98521.22
2023-01-11T04:15:21.042Z,98525.38
2023-01-11T04:18:25.249Z,98517.38
2023-01-11T04:21:27.815Z,98515.94
2023-01-11T04:24:30.573Z,98514.66
2023-01-11T04:27:33.257Z,98507.75
2023-01-11T04:30:37.191Z,98513.53
2023-01-11T04:33:41.176Z,98506.00
2023-01-11T04:36:43.840Z,98508.88
2023-01-11T04:39:46.486Z,98507.94
2023-01-11T04:42:49.054Z,98509.22
2023-01-11T04:45:51.697Z,98520.06
2023-01-11T04:48:56.428Z,98524.25
2023-01-11T04:51:59.016Z,98524.44
2023-01-11T04:55:01.748Z,98502.53
2023-01-11T04:58:04.300Z,98488.03
2023-01-11T05:01:10.858Z,98476.94
2023-01-11T05:04:14.984Z,98469.88
2023-01-11T05:07:17.727Z,98478.38
2023-01-11T05:10:21.198Z,98481.44
2023-01-11T05:13:41.799Z,98487.19
2023-01-11T05:16:45.022Z,98489.94
2023-01-11T05:19:49.553Z,98490.47
2023-01-11T05:22:52.499Z,98490.75
2023-01-11T05:25:55.075Z,98486.91
2023-01-11T05:28:59.986Z,98473.56
2023-01-11T05:32:02.960Z,98474.84
2023-01-11T05:35:10.055Z,98474.53
2023-01-11T05:38:12.956Z,98478.19
2023-01-11T05:41:16.645Z,98480.03
2023-01-11T05:44:37.357Z,98490.56
2023-01-11T05:47:40.267Z,98496.66
2023-01-11T05:50:44.303Z,98494.91
2023-01-11T05:53:47.823Z,98491.34
2023-01-11T05:56:50.592Z,98485.34
2023-01-11T05:59:53.476Z,98490.28
2023-01-11T06:02:56.186Z,98484.78
2023-01-11T06:06:00.930Z,98475.63
2023-01-11T06:09:03.541Z,98470.16
2023-01-11T06:12:06.678Z,98465.16
2023-01-11T06:15:10.416Z,98455.38
2023-01-11T06:18:12.781Z,98431.34
2023-01-11T06:21:18.328Z,98433.69
2023-01-11T06:24:21.044Z,98422.00
2023-01-11T06:27:26.482Z,98423.94
2023-01-11T06:30:29.042Z,98427.28
2023-01-11T06:33:32.136Z,98431.59
2023-01-11T06:36:36.157Z,98435.88
2023-01-11T06:39:38.885Z,98433.47
2023-01-11T06:42:41.591Z,98433.94
2023-01-11T06:45:44.683Z,98420.16
2023-01-11T06:48:48.074Z,98425.75
2023-01-11T06:51:52.391Z,98413.59
2023-01-11T06:54:54.859Z,98415.53
2023-01-11T06:57:58.362Z,98419.41
2023-01-11T07:01:01.012Z,98421.50
2023-01-11T07:04:04.072Z,98419.59
2023-01-11T07:07:08.500Z,98417.97
2023-01-11T07:10:13.846Z,98422.31
2023-01-11T07:13:17.513Z,98434.81
2023-01-11T07:16:20.128Z,98435.59
2023-01-11T07:19:22.947Z,98423.38
2023-01-11T07:22:27.139Z,98420.28
2023-01-11T07:25:30.279Z,98406.63
2023-01-11T07:28:32.939Z,98408.06
2023-01-11T07:31:36.013Z,98399.31
2023-01-11T07:34:38.937Z,98403.06
2023-01-11T07:37:43.021Z,98406.63
2023-01-11T07:40:45.611Z,98404.28
2023-01-11T07:43:47.846Z,98409.56
2023-01-11T07:46:50.562Z,98416.81
2023-01-11T07:49:53.437Z,98416.66
2023-01-11T07:52:57.772Z,98413.78
2023-01-11T07:56:00.440Z,98414.91
2023-01-11T07:59:03.190Z,98405.91
2023-01-11T08:02:05.937Z,98408.97
2023-01-11T08:05:09.447Z,98415.09
2023-01-11T08:08:13.515Z,98415.34
2023-01-11T08:11:34.122Z,98420.13
2023-01-11T08:14:42.750Z,98419.81
2023-01-11T08:17:45.500Z,98421.06
2023-01-11T08:20:48.177Z,98421.03
2023-01-11T08:23:54.170Z,98422.91
2023-01-11T08:26:57.930Z,98417.44
2023-01-11T08:30:00.792Z,98420.28
2023-01-11T08:33:03.885Z,98422.31
2023-01-11T08:36:07.701Z,98417.91
2023-01-11T08:39:12.277Z,98425.34
2023-01-11T08:42:14.973Z,98421.81
2023-01-11T08:45:17.943Z,98408.53
2023-01-11T08:48:20.674Z,98413.34
2023-01-11T08:51:23.500Z,98394.66
2023-01-11T08:54:29.107Z,98413.72
2023-01-11T08:57:31.787Z,98404.34
2023-01-11T09:00:34.878Z,98414.66
2023-01-11T09:03:37.527Z,98409.53
2023-01-11T09:06:40.324Z,98419.47
2023-01-11T09:09:44.447Z,98411.84
2023-01-11T09:12:47.226Z,98418.91
2023-01-11T09:15:49.968Z,98417.22
2023-01-11T09:18:53.028Z,98423.97
2023-01-11T09:22:00.809Z,98417.91
2023-01-11T09:25:05.537Z,98413.72
2023-01-11T09:28:09.525Z,98409.69
2023-01-11T09:31:12.437Z,98421.59
2023-01-11T09:34:15.259Z,98415.72
2023-01-11T09:37:17.935Z,98415.94
2023-01-11T09:40:23.608Z,98407.94
2023-01-11T09:43:27.996Z,98414.34
2023-01-11T09:46:31.307Z,98412.31
2023-01-11T09:49:40.697Z,98399.56
2023-01-11T09:52:46.028Z,98405.38
2023-01-11T09:55:52.244Z,98404.75
2023-01-11T09:59:01.288Z,98403.44
2023-01-11T10:02:12.069Z,98405.38
2023-01-11T10:05:51.640Z,98394.38
2023-01-11T10:18:32.083Z,98384.72
2023-01-11T10:19:40.387Z,98386.00
2023-01-11T10:22:47.218Z,98393.47
2023-01-11T10:25:54.202Z,98399.84
2023-01-11T10:29:19.283Z,98383.81
2023-01-11T10:32:45.811Z,98398.97
2023-01-11T10:36:10.685Z,98389.03
2023-01-11T10:39:31.996Z,98392.44
2023-01-11T10:42:41.709Z,98379.00
2023-01-11T10:45:51.259Z,98386.69
2023-01-11T10:49:03.909Z,98382.91
2023-01-11T10:52:17.174Z,98382.38
2023-01-11T10:55:25.065Z,98387.72
2023-01-11T10:58:39.476Z,98389.75
2023-01-11T11:01:51.398Z,98390.97
2023-01-11T11:05:07.473Z,98386.44
2023-01-11T11:08:14.918Z,98380.47
2023-01-11T11:11:21.970Z,98384.38
2023-01-11T11:14:29.569Z,98377.56
2023-01-11T11:17:36.129Z,98379.94
2023-01-11T11:20:40.701Z,98380.16
2023-01-11T11:23:44.363Z,98373.38
2023-01-11T11:26:48.495Z,98370.25
2023-01-11T11:29:52.066Z,98369.28
2023-01-11T11:32:59.252Z,98372.53
2023-01-11T11:36:04.778Z,98367.28
2023-01-11T11:39:11.622Z,98364.22
2023-01-11T11:42:17.297Z,98359.84
2023-01-11T11:45:20.283Z,98356.88
2023-01-11T11:48:26.236Z,98348.06
2023-01-11T11:51:29.421Z,98359.41
2023-01-11T11:54:34.235Z,98357.97
2023-01-11T11:57:39.947Z,98355.66
2023-01-11T12:00:46.791Z,98358.06
2023-01-11T12:03:51.494Z,98349.13
2023-01-11T12:07:07.103Z,98352.50
2023-01-11T12:10:12.849Z,98356.06
2023-01-11T12:13:28.352Z,98346.16
2023-01-11T12:16:33.143Z,98347.31
2023-01-11T12:19:42.597Z,98345.25
2023-01-11T12:22:45.749Z,98351.22
2023-01-11T12:26:06.224Z,98346.97
2023-01-11T12:29:28.210Z,98348.94
2023-01-11T12:32:57.579Z,98346.41
2023-01-11T12:36:05.839Z,98344.13
2023-01-11T12:39:16.473Z,98347.78
2023-01-11T12:42:38.865Z,98352.03
2023-01-11T12:45:47.492Z,98353.50
2023-01-11T12:49:11.842Z,98354.44
2023-01-11T12:52:37.864Z,98352.78
2023-01-11T12:56:02.761Z,98355.38
2023-01-11T12:59:19.592Z,98358.41
2023-01-11T13:02:43.431Z,98358.53
2023-01-11T13:05:56.127Z,98365.56
2023-01-11T13:09:04.429Z,98367.56
2023-01-11T13:12:11.678Z,98368.63
2023-01-11T13:15:26.244Z,98373.72
2023-01-11T13:18:36.080Z,98368.38
2023-01-11T13:21:43.411Z,98366.47
2023-01-11T13:24:50.598Z,98367.72
2023-01-11T13:27:54.660Z,98369.34
2023-01-11T13:30:57.910Z,98372.47
2023-01-11T13:34:04.497Z,98368.91
2023-01-11T13:37:12.601Z,98375.50
2023-01-11T13:40:20.990Z,98376.94
2023-01-11T13:43:30.784Z,98386.91
2023-01-11T13:46:44.654Z,98387.69
2023-01-11T13:49:52.453Z,98396.38
2023-01-11T13:53:03.321Z,98404.00
2023-01-11T13:56:13.558Z,98410.69
2023-01-11T13:59:19.616Z,98405.13
2023-01-11T14:02:28.400Z,98420.78
2023-01-11T14:05:37.360Z,98434.81
2023-01-11T14:09:18.056Z,98440.16
2023-01-11T14:12:33.969Z,98444.94
2023-01-11T14:15:40.923Z,98438.59
2023-01-11T14:18:49.509Z,98459.91
2023-01-11T14:22:01.573Z,98471.50
2023-01-11T14:25:07.996Z,98482.94
2023-01-11T14:28:23.413Z,98488.16
2023-01-11T14:32:00.389Z,98491.50
2023-01-11T14:35:34.401Z,98488.75
2023-01-11T14:38:51.795Z,98480.56
2023-01-11T14:42:22.043Z,98485.38
2023-01-11T14:45:59.499Z,98499.53
2023-01-11T14:49:10.884Z,98501.25
2023-01-11T14:52:18.575Z,98508.31
2023-01-11T14:55:25.014Z,98518.38
2023-01-11T14:58:28.951Z,98519.00
2023-01-11T15:02:11.884Z,98529.31
2023-01-11T15:05:35.225Z,98528.47
2023-01-11T15:08:45.130Z,98527.97
2023-01-11T15:11:47.748Z,98535.72
2023-01-11T15:14:53.905Z,98543.31
2023-01-11T15:18:15.497Z,98547.53
2023-01-11T15:21:19.859Z,98555.06
2023-01-11T15:24:26.472Z,98562.16
2023-01-11T15:27:33.386Z,98559.28
2023-01-11T15:30:39.667Z,98564.09
2023-01-11T15:33:48.748Z,98565.38
2023-01-11T15:36:59.098Z,98575.06
2023-01-11T15:40:05.706Z,98574.41
2023-01-11T15:43:34.253Z,98578.47
2023-01-11T15:47:09.611Z,98583.72
2023-01-11T15:50:40.799Z,98596.59
2023-01-11T15:54:28.175Z,98604.97
2023-01-11T15:57:53.121Z,98620.41
2023-01-11T16:01:15.772Z,98616.72
2023-01-11T16:04:27.230Z,98611.25
2023-01-11T16:07:40.497Z,98619.28
2023-01-11T16:11:03.325Z,98625.88
2023-01-11T16:14:31.163Z,98634.38
2023-01-11T16:17:33.975Z,98645.81
2023-01-11T16:20:37.041Z,98658.81
2023-01-11T16:23:42.269Z,98669.59
2023-01-11T16:26:45.355Z,98677.59
2023-01-11T16:29:50.892Z,98687.91
2023-01-11T16:32:53.747Z,98693.03
2023-01-11T16:36:08.898Z,98700.59
2023-01-11T16:39:14.402Z,98696.06
2023-01-11T16:42:17.019Z,98695.56
2023-01-11T16:45:22.468Z,98706.63
2023-01-11T16:48:25.783Z,98703.28
2023-01-11T16:51:28.857Z,98708.09
2023-01-11T16:54:34.567Z,98717.06
2023-01-11T16:57:40.804Z,98728.94
2023-01-11T17:00:43.897Z,98726.53
2023-01-11T17:03:50.238Z,98730.72
2023-01-11T17:06:52.699Z,98727.78
2023-01-11T17:10:16.953Z,98735.66
2023-01-11T17:13:57.172Z,98735.66
2023-01-11T17:17:02.449Z,98745.56
2023-01-11T17:20:05.850Z,98744.28
2023-01-11T17:23:08.673Z,98757.75
2023-01-11T17:26:16.965Z,98756.78
2023-01-11T17:29:28.743Z,98760.34
2023-01-11T17:32:37.028Z,98761.25
2023-01-11T17:35:42.701Z,98773.56
2023-01-11T17:38:45.698Z,98782.63
2023-01-11T17:42:07.383Z,98781.91
2023-01-11T17:45:22.619Z,98790.44
2023-01-11T17:48:27.055Z,98800.78
2023-01-11T17:51:31.496Z,98800.13
2023-01-11T17:54:34.579Z,98808.03
2023-01-11T17:57:38.873Z,98804.69
2023-01-11T18:00:42.266Z,98815.94
2023-01-11T18:03:46.352Z,98829.25
2023-01-11T18:06:50.176Z,98850.78
2023-01-11T18:10:02.953Z,98862.13
2023-01-11T18:13:07.731Z,98860.63
2023-01-11T18:16:10.308Z,98850.91
2023-01-11T18:19:25.517Z,98850.69
2023-01-11T18:22:30.707Z,98854.53
2023-01-11T18:25:34.968Z,98850.41
2023-01-11T18:28:39.195Z,98845.75
2023-01-11T18:31:43.196Z,98840.91
2023-01-11T18:34:47.865Z,98836.34
2023-01-11T18:37:50.735Z,98848.03
2023-01-11T18:40:54.959Z,98843.59
2023-01-11T18:43:59.533Z,98845.22
2023-01-11T18:47:02.748Z,98846.81
2023-01-11T18:50:06.551Z,98834.50
2023-01-11T18:53:10.196Z,98841.38
2023-01-11T18:56:14.334Z,98847.00
2023-01-11T18:59:18.417Z,98851.00
2023-01-11T19:02:24.187Z,98857.81
2023-01-11T19:05:27.047Z,98859.34
2023-01-11T19:08:30.709Z,98870.06
2023-01-11T19:11:34.073Z,98865.88
2023-01-11T19:14:38.248Z,98864.31
2023-01-11T19:17:41.013Z,98866.66
2023-01-11T19:20:43.825Z,98867.91
2023-01-11T19:23:46.498Z,98882.88
2023-01-11T19:26:49.549Z,98890.94
2023-01-11T19:29:53.948Z,98896.81
2023-01-11T19:32:57.030Z,98886.41
2023-01-11T19:35:59.703Z,98897.06
2023-01-11T19:39:02.724Z,98891.19
2023-01-11T19:42:05.598Z,98896.69
2023-01-11T19:45:10.645Z,98905.97
2023-01-11T19:48:13.249Z,98912.63
2023-01-11T19:51:16.121Z,98915.22
2023-01-11T19:54:21.198Z,98913.06
2023-01-11T19:57:27.537Z,98915.84
2023-01-11T20:00:32.936Z,98900.09
2023-01-11T20:03:36.304Z,98900.41
2023-01-11T20:06:41.102Z,98900.44
2023-01-11T20:09:43.814Z,98897.28
2023-01-11T20:12:46.418Z,98893.03
2023-01-11T20:15:50.954Z,98890.03
2023-01-11T20:18:54.516Z,98888.63
2023-01-11T20:21:57.283Z,98887.22
2023-01-11T20:25:00.501Z,98901.75
2023-01-11T20:28:05.810Z,98900.66
2023-01-11T20:31:10.079Z,98898.16
2023-01-11T20:34:13.560Z,98913.81
2023-01-11T20:37:16.522Z,98922.53
2023-01-11T20:40:19.661Z,98925.44
2023-01-11T20:43:22.476Z,98920.41
2023-01-11T20:46:26.610Z,98917.75
2023-01-11T20:49:30.173Z,98926.53
2023-01-11T20:52:32.955Z,98929.25
2023-01-11T20:55:35.607Z,98917.28
2023-01-11T20:58:38.262Z,98923.28
2023-01-11T21:01:42.509Z,98928.25
2023-01-11T21:04:45.323Z,98934.34
2023-01-11T21:07:48.110Z,98930.91
2023-01-11T21:10:50.900Z,98937.25
2023-01-11T21:13:54.357Z,98935.16
2023-01-11T21:16:59.696Z,98949.66
2023-01-11T21:20:02.245Z,98956.44
2023-01-11T21:23:04.844Z,98950.38
2023-01-11T21:26:11.765Z,98948.53
2023-01-11T21:29:14.621Z,98957.22
2023-01-11T21:32:19.034Z,98954.22
2023-01-11T21:35:21.852Z,98944.25
2023-01-11T21:38:24.591Z,98947.72
2023-01-11T21:41:47.144Z,98947.94
2023-01-11T21:44:49.665Z,98931.34
2023-01-11T21:47:54.431Z,98941.50
2023-01-11T21:50:57.109Z,98940.00
2023-01-11T21:54:01.059Z,98929.97
2023-01-11T21:57:03.612Z,98933.34
2023-01-11T22:00:07.203Z,98931.41
2023-01-11T22:03:11.148Z,98926.91
2023-01-11T22:06:15.692Z,98927.91
2023-01-11T22:09:19.425Z,98933.47
2023-01-11T22:12:22.686Z,98930.34
2023-01-11T22:15:25.364Z,98918.03
2023-01-11T22:18:30.577Z,98924.59
2023-01-11T22:21:33.143Z,98927.25
2023-01-11T22:24:36.209Z,98926.94
2023-01-11T22:27:38.860Z,98936.66
2023-01-11T22:30:41.633Z,98948.75
2023-01-11T22:33:46.167Z,98950.38
2023-01-11T22:36:49.568Z,98946.41
2023-01-11T22:39:52.755Z,98947.44
2023-01-11T22:42:55.622Z,98945.38
2023-01-11T22:45:59.143Z,98946.31
2023-01-11T22:49:03.295Z,98943.56
2023-01-11T22:52:06.642Z,98942.75
2023-01-11T22:55:10.141Z,98937.78
2023-01-11T22:58:12.670Z,98930.38
2023-01-11T23:01:17.476Z,98939.00
2023-01-11T23:04:21.384Z,98946.00
2023-01-11T23:07:24.319Z,98959.84
2023-01-11T23:10:27.006Z,98954.22
2023-01-11T23:13:47.109Z,98937.50
2023-01-11T23:16:50.324Z,98946.78
2023-01-11T23:19:54.337Z,98951.00
2023-01-11T23:22:56.879Z,98941.00
2023-01-11T23:25:59.591Z,98948.94
2023-01-11T23:29:02.231Z,98949.97
2023-01-11T23:32:05.010Z,98938.31
2023-01-11T23:35:10.106Z,98929.38
2023-01-11T23:38:12.912Z,98924.81
2023-01-11T23:41:34.529Z,98928.34
2023-01-11T23:44:37.134Z,98927.72
2023-01-11T23:47:39.676Z,98935.75
2023-01-11T23:50:43.647Z,98940.69
2023-01-11T23:53:46.398Z,98938.28
2023-01-11T23:56:49.306Z,98944.50
2023-01-11T23:59:52.005Z,98953.34
